sensor_id;sensor_type;location;lat;lon;timestamp;P1;durP1;ratioP1;P2;durP2;ratioP2
11098;SDS011;12223;42.650;23.364;2022-07-29T00:01:07;57.90;;;54.97;;
11098;SDS011;12223;42.650;23.364;2022-07-29T00:03:34;42.40;;;40.30;;
11098;SDS011;12223;42.650;23.364;2022-07-29T00:06:00;88.13;;;84.28;;
11098;SDS011;12223;42.650;23.364;2022-07-29T00:08:27;91.03;;;87.10;;
11098;SDS011;12223;42.650;23.364;2022-07-29T00:10:54;55.17;;;52.58;;
11098;SDS011;12223;42.650;23.364;2022-07-29T00:13:20;100.63;;;96.45;;
11098;SDS011;12223;42.650;23.364;2022-07-29T00:15:48;87.75;;;83.80;;
11098;SDS011;12223;42.650;23.364;2022-07-29T00:18:15;92.32;;;88.30;;
11098;SDS011;12223;42.650;23.364;2022-07-29T00:20:41;91.20;;;87.38;;
11098;SDS011;12223;42.650;23.364;2022-07-29T00:23:10;98.07;;;93.55;;
11098;SDS011;12223;42.650;23.364;2022-07-29T00:25:36;68.88;;;65.72;;
11098;SDS011;12223;42.650;23.364;2022-07-29T00:28:04;89.65;;;85.57;;
11098;SDS011;12223;42.650;23.364;2022-07-29T00:30:31;41.83;;;39.33;;
11098;SDS011;12223;42.650;23.364;2022-07-29T00:32:59;96.20;;;92.15;;
11098;SDS011;12223;42.650;23.364;2022-07-29T00:35:26;93.93;;;89.82;;
11098;SDS011;12223;42.650;23.364;2022-07-29T00:41:12;59.22;;;56.15;;
11098;SDS011;12223;42.650;23.364;2022-07-29T00:43:39;80.80;;;77.15;;
11098;SDS011;12223;42.650;23.364;2022-07-29T00:46:06;57.55;;;54.53;;
11098;SDS011;12223;42.650;23.364;2022-07-29T00:48:34;46.60;;;43.95;;
11098;SDS011;12223;42.650;23.364;2022-07-29T00:51:01;75.25;;;71.88;;
11098;SDS011;12223;42.650;23.364;2022-07-29T00:53:28;37.60;;;35.55;;
11098;SDS011;12223;42.650;23.364;2022-07-29T00:55:55;58.40;;;55.47;;
11098;SDS011;12223;42.650;23.364;2022-07-29T00:58:23;55.33;;;52.45;;
11098;SDS011;12223;42.650;23.364;2022-07-29T01:00:50;59.95;;;57.08;;
11098;SDS011;12223;42.650;23.364;2022-07-29T01:03:16;60.40;;;57.60;;
11098;SDS011;12223;42.650;23.364;2022-07-29T01:05:45;58.33;;;55.65;;
11098;SDS011;12223;42.650;23.364;2022-07-29T01:08:12;82.22;;;78.53;;
11098;SDS011;12223;42.650;23.364;2022-07-29T01:10:40;148.75;;;142.43;;
11098;SDS011;12223;42.650;23.364;2022-07-29T01:13:07;138.18;;;132.13;;
11098;SDS011;12223;42.650;23.364;2022-07-29T01:15:36;133.95;;;128.30;;
11098;SDS011;12223;42.650;23.364;2022-07-29T01:18:07;143.18;;;137.05;;
11098;SDS011;12223;42.650;23.364;2022-07-29T01:20:41;142.05;;;135.98;;
11098;SDS011;12223;42.650;23.364;2022-07-29T01:26:13;127.95;;;122.63;;
11098;SDS011;12223;42.650;23.364;2022-07-29T01:31:33;106.00;;;101.18;;
11098;SDS011;12223;42.650;23.364;2022-07-29T01:34:02;93.35;;;89.07;;
11098;SDS011;12223;42.650;23.364;2022-07-29T01:36:31;87.85;;;83.32;;
11098;SDS011;12223;42.650;23.364;2022-07-29T01:38:59;79.22;;;74.80;;
11098;SDS011;12223;42.650;23.364;2022-07-29T01:44:31;32.20;;;30.17;;
11098;SDS011;12223;42.650;23.364;2022-07-29T01:47:02;32.97;;;31.02;;
11098;SDS011;12223;42.650;23.364;2022-07-29T01:49:33;39.22;;;37.17;;
11098;SDS011;12223;42.650;23.364;2022-07-29T01:52:04;38.55;;;36.17;;
11098;SDS011;12223;42.650;23.364;2022-07-29T01:54:34;51.45;;;48.80;;
11098;SDS011;12223;42.650;23.364;2022-07-29T01:57:03;58.92;;;55.33;;
11098;SDS011;12223;42.650;23.364;2022-07-29T01:59:30;55.53;;;52.67;;
11098;SDS011;12223;42.650;23.364;2022-07-29T02:01:58;62.55;;;59.47;;
11098;SDS011;12223;42.650;23.364;2022-07-29T02:04:27;116.97;;;111.53;;
11098;SDS011;12223;42.650;23.364;2022-07-29T02:06:54;56.40;;;53.38;;
11098;SDS011;12223;42.650;23.364;2022-07-29T02:09:23;106.28;;;101.50;;
11098;SDS011;12223;42.650;23.364;2022-07-29T02:11:52;45.85;;;43.20;;
11098;SDS011;12223;42.650;23.364;2022-07-29T02:14:21;25.98;;;23.85;;
11098;SDS011;12223;42.650;23.364;2022-07-29T02:16:49;59.17;;;56.10;;
11098;SDS011;12223;42.650;23.364;2022-07-29T02:19:17;94.22;;;89.60;;
11098;SDS011;12223;42.650;23.364;2022-07-29T02:21:46;73.68;;;70.05;;
11098;SDS011;12223;42.650;23.364;2022-07-29T02:24:15;145.85;;;139.23;;
11098;SDS011;12223;42.650;23.364;2022-07-29T02:26:42;72.30;;;68.90;;
11098;SDS011;12223;42.650;23.364;2022-07-29T02:29:09;67.85;;;64.38;;
11098;SDS011;12223;42.650;23.364;2022-07-29T02:31:36;63.30;;;60.10;;
11098;SDS011;12223;42.650;23.364;2022-07-29T02:34:05;65.55;;;62.20;;
11098;SDS011;12223;42.650;23.364;2022-07-29T02:39:36;30.02;;;28.13;;
11098;SDS011;12223;42.650;23.364;2022-07-29T02:42:05;29.75;;;27.83;;
11098;SDS011;12223;42.650;23.364;2022-07-29T02:44:32;79.65;;;75.82;;
11098;SDS011;12223;42.650;23.364;2022-07-29T02:47:02;41.15;;;38.85;;
11098;SDS011;12223;42.650;23.364;2022-07-29T02:49:32;32.67;;;30.75;;
11098;SDS011;12223;42.650;23.364;2022-07-29T02:52:01;117.65;;;112.63;;
11098;SDS011;12223;42.650;23.364;2022-07-29T02:54:31;21.10;;;19.20;;
11098;SDS011;12223;42.650;23.364;2022-07-29T02:57:02;40.67;;;38.55;;
11098;SDS011;12223;42.650;23.364;2022-07-29T02:59:30;53.35;;;50.65;;
11098;SDS011;12223;42.650;23.364;2022-07-29T03:01:59;41.03;;;38.78;;
11098;SDS011;12223;42.650;23.364;2022-07-29T03:04:26;20.02;;;18.45;;
11098;SDS011;12223;42.650;23.364;2022-07-29T03:06:54;17.10;;;15.98;;
11098;SDS011;12223;42.650;23.364;2022-07-29T03:12:25;36.20;;;34.25;;
11098;SDS011;12223;42.650;23.364;2022-07-29T03:14:52;80.90;;;77.20;;
11098;SDS011;12223;42.650;23.364;2022-07-29T03:17:19;86.10;;;82.15;;
11098;SDS011;12223;42.650;23.364;2022-07-29T03:19:45;129.90;;;124.05;;
11098;SDS011;12223;42.650;23.364;2022-07-29T03:22:12;160.82;;;153.48;;
11098;SDS011;12223;42.650;23.364;2022-07-29T03:24:40;66.90;;;63.38;;
11098;SDS011;12223;42.650;23.364;2022-07-29T03:27:06;46.53;;;43.88;;
11098;SDS011;12223;42.650;23.364;2022-07-29T03:29:35;35.15;;;32.80;;
11098;SDS011;12223;42.650;23.364;2022-07-29T03:32:02;26.63;;;24.42;;
11098;SDS011;12223;42.650;23.364;2022-07-29T03:34:28;29.23;;;26.83;;
11098;SDS011;12223;42.650;23.364;2022-07-29T03:36:55;28.83;;;26.60;;
11098;SDS011;12223;42.650;23.364;2022-07-29T03:39:23;34.28;;;31.67;;
11098;SDS011;12223;42.650;23.364;2022-07-29T03:41:52;29.92;;;27.85;;
11098;SDS011;12223;42.650;23.364;2022-07-29T03:44:19;70.68;;;67.13;;
11098;SDS011;12223;42.650;23.364;2022-07-29T03:46:48;40.03;;;37.40;;
11098;SDS011;12223;42.650;23.364;2022-07-29T03:49:15;39.40;;;36.95;;
11098;SDS011;12223;42.650;23.364;2022-07-29T03:51:43;63.13;;;59.60;;
11098;SDS011;12223;42.650;23.364;2022-07-29T03:54:09;29.98;;;27.88;;
11098;SDS011;12223;42.650;23.364;2022-07-29T03:56:37;103.15;;;98.03;;
11098;SDS011;12223;42.650;23.364;2022-07-29T03:59:05;129.10;;;122.40;;
11098;SDS011;12223;42.650;23.364;2022-07-29T04:01:32;87.57;;;83.35;;
11098;SDS011;12223;42.650;23.364;2022-07-29T04:04:01;47.65;;;44.70;;
11098;SDS011;12223;42.650;23.364;2022-07-29T04:06:28;44.92;;;42.35;;
11098;SDS011;12223;42.650;23.364;2022-07-29T04:08:55;26.52;;;24.40;;
11098;SDS011;12223;42.650;23.364;2022-07-29T04:11:21;44.55;;;41.88;;
11098;SDS011;12223;42.650;23.364;2022-07-29T04:13:48;80.55;;;76.47;;
11098;SDS011;12223;42.650;23.364;2022-07-29T04:16:14;20.90;;;18.80;;
11098;SDS011;12223;42.650;23.364;2022-07-29T04:18:41;16.70;;;14.93;;
11098;SDS011;12223;42.650;23.364;2022-07-29T04:21:09;15.75;;;11.80;;
11098;SDS011;12223;42.650;23.364;2022-07-29T04:23:35;16.85;;;15.50;;
11098;SDS011;12223;42.650;23.364;2022-07-29T04:26:02;20.67;;;19.25;;
11098;SDS011;12223;42.650;23.364;2022-07-29T04:28:29;12.85;;;11.60;;
11098;SDS011;12223;42.650;23.364;2022-07-29T04:30:55;15.57;;;14.35;;
11098;SDS011;12223;42.650;23.364;2022-07-29T04:33:22;17.20;;;15.85;;
11098;SDS011;12223;42.650;23.364;2022-07-29T04:35:49;24.33;;;22.67;;
11098;SDS011;12223;42.650;23.364;2022-07-29T04:38:17;10.30;;;9.45;;
11098;SDS011;12223;42.650;23.364;2022-07-29T04:43:46;11.50;;;9.40;;
11098;SDS011;12223;42.650;23.364;2022-07-29T04:46:13;14.43;;;9.93;;
11098;SDS011;12223;42.650;23.364;2022-07-29T04:48:39;10.27;;;9.30;;
11098;SDS011;12223;42.650;23.364;2022-07-29T04:51:07;11.38;;;8.23;;
11098;SDS011;12223;42.650;23.364;2022-07-29T04:53:35;12.70;;;11.63;;
11098;SDS011;12223;42.650;23.364;2022-07-29T04:56:02;10.73;;;9.27;;
11098;SDS011;12223;42.650;23.364;2022-07-29T04:58:29;12.70;;;11.60;;
11098;SDS011;12223;42.650;23.364;2022-07-29T05:00:58;22.45;;;12.48;;
11098;SDS011;12223;42.650;23.364;2022-07-29T05:03:25;11.98;;;9.30;;
11098;SDS011;12223;42.650;23.364;2022-07-29T05:08:57;10.95;;;9.18;;
11098;SDS011;12223;42.650;23.364;2022-07-29T05:11:23;13.85;;;12.60;;
11098;SDS011;12223;42.650;23.364;2022-07-29T05:13:50;12.13;;;10.98;;
11098;SDS011;12223;42.650;23.364;2022-07-29T05:19:21;13.10;;;11.95;;
11098;SDS011;12223;42.650;23.364;2022-07-29T05:21:47;12.35;;;10.48;;
11098;SDS011;12223;42.650;23.364;2022-07-29T05:24:15;10.30;;;9.40;;
11098;SDS011;12223;42.650;23.364;2022-07-29T05:29:45;10.27;;;9.38;;
11098;SDS011;12223;42.650;23.364;2022-07-29T05:32:12;19.58;;;9.98;;
11098;SDS011;12223;42.650;23.364;2022-07-29T05:34:39;13.82;;;10.63;;
11098;SDS011;12223;42.650;23.364;2022-07-29T05:40:10;13.88;;;9.18;;
11098;SDS011;12223;42.650;23.364;2022-07-29T05:42:36;9.88;;;8.73;;
11098;SDS011;12223;42.650;23.364;2022-07-29T05:45:03;11.00;;;9.90;;
11098;SDS011;12223;42.650;23.364;2022-07-29T05:50:33;29.17;;;27.20;;
11098;SDS011;12223;42.650;23.364;2022-07-29T05:53:00;11.95;;;10.70;;
11098;SDS011;12223;42.650;23.364;2022-07-29T05:55:27;12.10;;;10.90;;
11098;SDS011;12223;42.650;23.364;2022-07-29T05:57:54;42.05;;;39.85;;
11098;SDS011;12223;42.650;23.364;2022-07-29T06:00:21;15.00;;;13.95;;
11098;SDS011;12223;42.650;23.364;2022-07-29T06:02:48;18.63;;;12.40;;
11098;SDS011;12223;42.650;23.364;2022-07-29T06:05:14;14.48;;;13.07;;
11098;SDS011;12223;42.650;23.364;2022-07-29T06:07:41;14.18;;;12.68;;
11098;SDS011;12223;42.650;23.364;2022-07-29T06:10:08;16.88;;;14.95;;
11098;SDS011;12223;42.650;23.364;2022-07-29T06:12:37;60.08;;;57.00;;
11098;SDS011;12223;42.650;23.364;2022-07-29T06:15:04;27.73;;;25.48;;
11098;SDS011;12223;42.650;23.364;2022-07-29T06:17:30;28.80;;;20.23;;
11098;SDS011;12223;42.650;23.364;2022-07-29T06:19:57;21.33;;;18.77;;
11098;SDS011;12223;42.650;23.364;2022-07-29T06:22:24;33.00;;;31.02;;
11098;SDS011;12223;42.650;23.364;2022-07-29T06:24:50;14.02;;;11.82;;
11098;SDS011;12223;42.650;23.364;2022-07-29T06:27:17;15.88;;;12.70;;
11098;SDS011;12223;42.650;23.364;2022-07-29T06:29:45;17.75;;;16.05;;
11098;SDS011;12223;42.650;23.364;2022-07-29T06:35:14;13.80;;;12.10;;
11098;SDS011;12223;42.650;23.364;2022-07-29T06:37:42;12.27;;;11.15;;
11098;SDS011;12223;42.650;23.364;2022-07-29T06:40:09;12.10;;;11.10;;
11098;SDS011;12223;42.650;23.364;2022-07-29T06:42:53;18.27;;;16.77;;
11098;SDS011;12223;42.650;23.364;2022-07-29T06:45:22;15.43;;;14.23;;
11098;SDS011;12223;42.650;23.364;2022-07-29T06:47:49;49.53;;;45.92;;
11098;SDS011;12223;42.650;23.364;2022-07-29T06:50:15;41.78;;;39.60;;
11098;SDS011;12223;42.650;23.364;2022-07-29T06:52:42;23.27;;;18.67;;
11098;SDS011;12223;42.650;23.364;2022-07-29T06:55:09;16.63;;;15.18;;
11098;SDS011;12223;42.650;23.364;2022-07-29T06:57:35;14.18;;;13.07;;
11098;SDS011;12223;42.650;23.364;2022-07-29T07:00:02;38.15;;;36.00;;
11098;SDS011;12223;42.650;23.364;2022-07-29T07:02:31;27.80;;;26.15;;
11098;SDS011;12223;42.650;23.364;2022-07-29T07:04:58;58.15;;;55.10;;
11098;SDS011;12223;42.650;23.364;2022-07-29T07:10:27;12.13;;;10.95;;
11098;SDS011;12223;42.650;23.364;2022-07-29T07:12:54;69.10;;;65.95;;
11098;SDS011;12223;42.650;23.364;2022-07-29T07:15:21;43.95;;;41.28;;
11098;SDS011;12223;42.650;23.364;2022-07-29T07:17:49;24.55;;;22.75;;
11098;SDS011;12223;42.650;23.364;2022-07-29T07:20:15;15.43;;;14.13;;
11098;SDS011;12223;42.650;23.364;2022-07-29T07:22:42;44.13;;;42.08;;
11098;SDS011;12223;42.650;23.364;2022-07-29T07:25:09;19.45;;;18.05;;
11098;SDS011;12223;42.650;23.364;2022-07-29T07:27:35;17.23;;;16.02;;
11098;SDS011;12223;42.650;23.364;2022-07-29T07:30:05;20.92;;;19.58;;
11098;SDS011;12223;42.650;23.364;2022-07-29T07:32:33;22.15;;;20.67;;
11098;SDS011;12223;42.650;23.364;2022-07-29T07:35:01;24.00;;;22.65;;
11098;SDS011;12223;42.650;23.364;2022-07-29T07:37:28;17.02;;;15.52;;
11098;SDS011;12223;42.650;23.364;2022-07-29T07:39:55;14.05;;;12.95;;
11098;SDS011;12223;42.650;23.364;2022-07-29T07:42:24;33.13;;;31.13;;
11098;SDS011;12223;42.650;23.364;2022-07-29T07:47:53;45.08;;;42.88;;
11098;SDS011;12223;42.650;23.364;2022-07-29T07:50:21;14.73;;;13.63;;
11098;SDS011;12223;42.650;23.364;2022-07-29T07:52:50;11.25;;;8.73;;
11098;SDS011;12223;42.650;23.364;2022-07-29T07:55:17;10.07;;;9.27;;
11098;SDS011;12223;42.650;23.364;2022-07-29T07:57:43;9.13;;;8.45;;
11098;SDS011;12223;42.650;23.364;2022-07-29T08:00:11;8.77;;;7.85;;
11098;SDS011;12223;42.650;23.364;2022-07-29T08:02:38;9.75;;;9.00;;
11098;SDS011;12223;42.650;23.364;2022-07-29T08:05:05;13.55;;;9.15;;
11098;SDS011;12223;42.650;23.364;2022-07-29T08:07:33;11.10;;;10.13;;
11098;SDS011;12223;42.650;23.364;2022-07-29T08:09:59;10.05;;;9.13;;
11098;SDS011;12223;42.650;23.364;2022-07-29T08:12:27;11.40;;;10.57;;
11098;SDS011;12223;42.650;23.364;2022-07-29T08:14:54;14.13;;;13.20;;
11098;SDS011;12223;42.650;23.364;2022-07-29T08:17:20;11.63;;;10.65;;
11098;SDS011;12223;42.650;23.364;2022-07-29T08:19:47;10.40;;;9.55;;
11098;SDS011;12223;42.650;23.364;2022-07-29T08:25:19;21.17;;;19.67;;
11098;SDS011;12223;42.650;23.364;2022-07-29T08:27:45;9.90;;;9.02;;
11098;SDS011;12223;42.650;23.364;2022-07-29T08:30:14;12.00;;;10.82;;
11098;SDS011;12223;42.650;23.364;2022-07-29T08:32:40;11.05;;;10.07;;
11098;SDS011;12223;42.650;23.364;2022-07-29T08:35:09;10.52;;;9.50;;
11098;SDS011;12223;42.650;23.364;2022-07-29T08:37:36;13.73;;;9.95;;
11098;SDS011;12223;42.650;23.364;2022-07-29T08:40:05;11.95;;;10.85;;
11098;SDS011;12223;42.650;23.364;2022-07-29T08:42:33;13.93;;;13.02;;
11098;SDS011;12223;42.650;23.364;2022-07-29T08:48:02;8.18;;;7.47;;
11098;SDS011;12223;42.650;23.364;2022-07-29T08:50:29;8.57;;;7.78;;
11098;SDS011;12223;42.650;23.364;2022-07-29T08:52:56;8.88;;;8.23;;
11098;SDS011;12223;42.650;23.364;2022-07-29T08:55:23;10.45;;;7.85;;
11098;SDS011;12223;42.650;23.364;2022-07-29T08:57:51;8.52;;;7.15;;
11098;SDS011;12223;42.650;23.364;2022-07-29T09:00:17;8.20;;;7.57;;
11098;SDS011;12223;42.650;23.364;2022-07-29T09:02:45;9.55;;;8.85;;
11098;SDS011;12223;42.650;23.364;2022-07-29T09:05:13;9.02;;;8.13;;
11098;SDS011;12223;42.650;23.364;2022-07-29T09:07:41;13.80;;;8.95;;
11098;SDS011;12223;42.650;23.364;2022-07-29T09:10:09;14.02;;;8.85;;
11098;SDS011;12223;42.650;23.364;2022-07-29T09:12:35;9.05;;;8.15;;
11098;SDS011;12223;42.650;23.364;2022-07-29T09:15:04;8.23;;;7.60;;
11098;SDS011;12223;42.650;23.364;2022-07-29T09:17:39;10.07;;;7.85;;
11098;SDS011;12223;42.650;23.364;2022-07-29T09:20:09;9.73;;;8.88;;
11098;SDS011;12223;42.650;23.364;2022-07-29T09:22:36;8.88;;;8.02;;
11098;SDS011;12223;42.650;23.364;2022-07-29T09:25:03;8.35;;;7.65;;
11098;SDS011;12223;42.650;23.364;2022-07-29T09:27:30;9.00;;;8.10;;
11098;SDS011;12223;42.650;23.364;2022-07-29T09:29:58;8.38;;;7.65;;
11098;SDS011;12223;42.650;23.364;2022-07-29T09:32:28;10.27;;;8.77;;
11098;SDS011;12223;42.650;23.364;2022-07-29T09:37:39;8.65;;;7.95;;
11098;SDS011;12223;42.650;23.364;2022-07-29T09:40:10;10.13;;;9.25;;
11098;SDS011;12223;42.650;23.364;2022-07-29T09:42:37;9.15;;;8.45;;
11098;SDS011;12223;42.650;23.364;2022-07-29T09:48:14;11.25;;;8.75;;
11098;SDS011;12223;42.650;23.364;2022-07-29T09:50:42;8.27;;;7.57;;
11098;SDS011;12223;42.650;23.364;2022-07-29T09:53:09;10.35;;;8.18;;
11098;SDS011;12223;42.650;23.364;2022-07-29T09:55:46;10.27;;;9.20;;
11098;SDS011;12223;42.650;23.364;2022-07-29T09:58:15;14.00;;;9.32;;
11098;SDS011;12223;42.650;23.364;2022-07-29T10:00:43;9.35;;;8.57;;
11098;SDS011;12223;42.650;23.364;2022-07-29T10:03:09;8.23;;;7.63;;
11098;SDS011;12223;42.650;23.364;2022-07-29T10:05:38;9.15;;;8.32;;
11098;SDS011;12223;42.650;23.364;2022-07-29T10:11:09;9.43;;;8.50;;
11098;SDS011;12223;42.650;23.364;2022-07-29T10:13:35;9.45;;;8.45;;
11098;SDS011;12223;42.650;23.364;2022-07-29T10:16:02;9.25;;;8.35;;
11098;SDS011;12223;42.650;23.364;2022-07-29T10:18:29;18.70;;;10.43;;
11098;SDS011;12223;42.650;23.364;2022-07-29T10:20:57;11.27;;;10.35;;
11098;SDS011;12223;42.650;23.364;2022-07-29T10:23:26;9.57;;;8.77;;
11098;SDS011;12223;42.650;23.364;2022-07-29T10:25:53;10.68;;;9.73;;
11098;SDS011;12223;42.650;23.364;2022-07-29T10:28:19;14.35;;;10.05;;
11098;SDS011;12223;42.650;23.364;2022-07-29T10:30:46;9.65;;;8.77;;
11098;SDS011;12223;42.650;23.364;2022-07-29T10:36:02;9.70;;;8.80;;
11098;SDS011;12223;42.650;23.364;2022-07-29T10:38:41;17.85;;;10.55;;
11098;SDS011;12223;42.650;23.364;2022-07-29T10:44:00;9.30;;;8.50;;
11098;SDS011;12223;42.650;23.364;2022-07-29T10:46:27;8.93;;;8.10;;
11098;SDS011;12223;42.650;23.364;2022-07-29T10:49:10;9.25;;;8.30;;
11098;SDS011;12223;42.650;23.364;2022-07-29T10:54:39;8.90;;;8.00;;
11098;SDS011;12223;42.650;23.364;2022-07-29T11:02:46;9.90;;;9.20;;
11098;SDS011;12223;42.650;23.364;2022-07-29T11:05:17;8.82;;;8.02;;
11098;SDS011;12223;42.650;23.364;2022-07-29T11:10:30;11.43;;;8.00;;
11098;SDS011;12223;42.650;23.364;2022-07-29T11:15:59;10.02;;;9.13;;
11098;SDS011;12223;42.650;23.364;2022-07-29T11:18:26;9.63;;;8.63;;
11098;SDS011;12223;42.650;23.364;2022-07-29T11:20:53;9.70;;;8.18;;
11098;SDS011;12223;42.650;23.364;2022-07-29T11:23:20;11.38;;;8.85;;
11098;SDS011;12223;42.650;23.364;2022-07-29T11:28:31;7.95;;;7.35;;
11098;SDS011;12223;42.650;23.364;2022-07-29T11:30:58;19.60;;;9.82;;
11098;SDS011;12223;42.650;23.364;2022-07-29T11:33:28;8.57;;;7.80;;
11098;SDS011;12223;42.650;23.364;2022-07-29T11:41:40;9.38;;;8.05;;
11098;SDS011;12223;42.650;23.364;2022-07-29T11:44:08;8.50;;;7.72;;
11098;SDS011;12223;42.650;23.364;2022-07-29T11:46:42;10.82;;;8.98;;
11098;SDS011;12223;42.650;23.364;2022-07-29T11:49:09;9.85;;;9.13;;
11098;SDS011;12223;42.650;23.364;2022-07-29T11:51:36;8.07;;;7.38;;
11098;SDS011;12223;42.650;23.364;2022-07-29T11:54:03;10.15;;;8.30;;
11098;SDS011;12223;42.650;23.364;2022-07-29T11:56:30;13.27;;;9.13;;
11098;SDS011;12223;42.650;23.364;2022-07-29T11:59:02;9.38;;;8.52;;
11098;SDS011;12223;42.650;23.364;2022-07-29T12:01:30;9.65;;;8.98;;
11098;SDS011;12223;42.650;23.364;2022-07-29T12:04:02;9.30;;;8.50;;
11098;SDS011;12223;42.650;23.364;2022-07-29T12:06:28;9.35;;;8.55;;
11098;SDS011;12223;42.650;23.364;2022-07-29T12:08:55;9.75;;;8.52;;
11098;SDS011;12223;42.650;23.364;2022-07-29T12:14:44;9.90;;;9.02;;
11098;SDS011;12223;42.650;23.364;2022-07-29T12:17:25;9.57;;;8.55;;
11098;SDS011;12223;42.650;23.364;2022-07-29T12:19:52;9.05;;;8.15;;
11098;SDS011;12223;42.650;23.364;2022-07-29T12:22:26;13.93;;;9.82;;
11098;SDS011;12223;42.650;23.364;2022-07-29T12:24:53;24.60;;;10.63;;
11098;SDS011;12223;42.650;23.364;2022-07-29T12:27:19;10.60;;;9.55;;
11098;SDS011;12223;42.650;23.364;2022-07-29T12:29:54;10.13;;;9.13;;
11098;SDS011;12223;42.650;23.364;2022-07-29T12:32:21;11.65;;;8.60;;
11098;SDS011;12223;42.650;23.364;2022-07-29T12:34:50;9.90;;;9.05;;
11098;SDS011;12223;42.650;23.364;2022-07-29T12:37:16;12.48;;;9.07;;
11098;SDS011;12223;42.650;23.364;2022-07-29T12:39:43;10.50;;;9.60;;
11098;SDS011;12223;42.650;23.364;2022-07-29T12:50:55;12.48;;;10.50;;
11098;SDS011;12223;42.650;23.364;2022-07-29T12:53:22;10.02;;;8.82;;
11098;SDS011;12223;42.650;23.364;2022-07-29T12:58:52;10.38;;;9.68;;
11098;SDS011;12223;42.650;23.364;2022-07-29T13:01:19;10.93;;;9.30;;
11098;SDS011;12223;42.650;23.364;2022-07-29T13:03:46;11.35;;;9.82;;
11098;SDS011;12223;42.650;23.364;2022-07-29T13:06:34;10.00;;;9.18;;
11098;SDS011;12223;42.650;23.364;2022-07-29T13:09:03;15.55;;;9.77;;
11098;SDS011;12223;42.650;23.364;2022-07-29T13:11:31;10.48;;;9.35;;
11098;SDS011;12223;42.650;23.364;2022-07-29T13:13:57;11.02;;;9.68;;
11098;SDS011;12223;42.650;23.364;2022-07-29T13:19:32;13.63;;;9.95;;
11098;SDS011;12223;42.650;23.364;2022-07-29T13:31:11;12.70;;;11.27;;
11098;SDS011;12223;42.650;23.364;2022-07-29T13:33:38;11.63;;;10.73;;
11098;SDS011;12223;42.650;23.364;2022-07-29T13:36:05;18.27;;;16.95;;
11098;SDS011;12223;42.650;23.364;2022-07-29T13:44:47;14.25;;;10.27;;
11098;SDS011;12223;42.650;23.364;2022-07-29T13:47:17;10.45;;;9.38;;
11098;SDS011;12223;42.650;23.364;2022-07-29T13:49:43;10.60;;;9.60;;
11098;SDS011;12223;42.650;23.364;2022-07-29T13:52:10;9.68;;;8.95;;
11098;SDS011;12223;42.650;23.364;2022-07-29T13:54:36;13.05;;;10.18;;
11098;SDS011;12223;42.650;23.364;2022-07-29T13:57:04;10.82;;;9.93;;
11098;SDS011;12223;42.650;23.364;2022-07-29T13:59:31;11.13;;;10.23;;
11098;SDS011;12223;42.650;23.364;2022-07-29T14:01:59;11.57;;;10.57;;
11098;SDS011;12223;42.650;23.364;2022-07-29T14:04:28;12.10;;;10.93;;
11098;SDS011;12223;42.650;23.364;2022-07-29T14:06:54;23.48;;;12.85;;
11098;SDS011;12223;42.650;23.364;2022-07-29T14:09:21;11.88;;;10.75;;
11098;SDS011;12223;42.650;23.364;2022-07-29T14:11:48;12.40;;;11.18;;
11098;SDS011;12223;42.650;23.364;2022-07-29T14:14:15;15.05;;;10.57;;
11098;SDS011;12223;42.650;23.364;2022-07-29T14:16:41;11.00;;;10.10;;
11098;SDS011;12223;42.650;23.364;2022-07-29T14:19:08;11.32;;;10.38;;
11098;SDS011;12223;42.650;23.364;2022-07-29T14:21:36;12.75;;;9.43;;
11098;SDS011;12223;42.650;23.364;2022-07-29T14:24:03;17.63;;;10.63;;
11098;SDS011;12223;42.650;23.364;2022-07-29T14:26:29;12.25;;;11.25;;
11098;SDS011;12223;42.650;23.364;2022-07-29T14:28:56;13.13;;;10.95;;
11098;SDS011;12223;42.650;23.364;2022-07-29T14:31:22;11.70;;;10.45;;
11098;SDS011;12223;42.650;23.364;2022-07-29T14:36:54;10.43;;;9.52;;
11098;SDS011;12223;42.650;23.364;2022-07-29T14:39:21;10.18;;;9.27;;
11098;SDS011;12223;42.650;23.364;2022-07-29T14:41:49;13.38;;;12.30;;
11098;SDS011;12223;42.650;23.364;2022-07-29T14:44:16;16.45;;;15.35;;
11098;SDS011;12223;42.650;23.364;2022-07-29T14:46:42;20.23;;;18.63;;
11098;SDS011;12223;42.650;23.364;2022-07-29T14:49:09;18.63;;;17.13;;
11098;SDS011;12223;42.650;23.364;2022-07-29T14:51:35;23.98;;;22.52;;
11098;SDS011;12223;42.650;23.364;2022-07-29T14:54:03;21.30;;;19.60;;
11098;SDS011;12223;42.650;23.364;2022-07-29T14:56:30;22.23;;;20.35;;
11098;SDS011;12223;42.650;23.364;2022-07-29T14:58:56;21.83;;;20.30;;
11098;SDS011;12223;42.650;23.364;2022-07-29T15:01:23;14.82;;;13.77;;
11098;SDS011;12223;42.650;23.364;2022-07-29T15:03:50;17.75;;;15.23;;
11098;SDS011;12223;42.650;23.364;2022-07-29T15:06:16;16.48;;;13.13;;
11098;SDS011;12223;42.650;23.364;2022-07-29T15:08:43;13.57;;;12.43;;
11098;SDS011;12223;42.650;23.364;2022-07-29T15:11:11;13.23;;;12.13;;
11098;SDS011;12223;42.650;23.364;2022-07-29T15:13:37;11.02;;;9.93;;
11098;SDS011;12223;42.650;23.364;2022-07-29T15:19:07;14.65;;;10.60;;
11098;SDS011;12223;42.650;23.364;2022-07-29T15:21:33;10.95;;;10.15;;
11098;SDS011;12223;42.650;23.364;2022-07-29T15:24:00;10.85;;;9.85;;
11098;SDS011;12223;42.650;23.364;2022-07-29T15:29:30;11.55;;;10.40;;
11098;SDS011;12223;42.650;23.364;2022-07-29T15:31:57;11.18;;;10.27;;
11098;SDS011;12223;42.650;23.364;2022-07-29T15:34:24;14.85;;;10.13;;
11098;SDS011;12223;42.650;23.364;2022-07-29T15:36:50;15.00;;;10.82;;
11098;SDS011;12223;42.650;23.364;2022-07-29T15:39:17;12.90;;;10.48;;
11098;SDS011;12223;42.650;23.364;2022-07-29T15:41:44;12.95;;;9.95;;
11098;SDS011;12223;42.650;23.364;2022-07-29T15:50:07;17.10;;;15.70;;
11098;SDS011;12223;42.650;23.364;2022-07-29T15:52:39;21.08;;;19.48;;
11098;SDS011;12223;42.650;23.364;2022-07-29T15:55:07;25.10;;;23.77;;
11098;SDS011;12223;42.650;23.364;2022-07-29T15:57:34;26.70;;;24.80;;
11098;SDS011;12223;42.650;23.364;2022-07-29T16:00:01;24.48;;;23.20;;
11098;SDS011;12223;42.650;23.364;2022-07-29T16:02:28;29.63;;;27.77;;
11098;SDS011;12223;42.650;23.364;2022-07-29T16:04:54;26.88;;;25.30;;
11098;SDS011;12223;42.650;23.364;2022-07-29T16:07:22;14.15;;;13.13;;
11098;SDS011;12223;42.650;23.364;2022-07-29T16:09:49;9.73;;;8.75;;
11098;SDS011;12223;42.650;23.364;2022-07-29T16:12:16;10.80;;;8.98;;
11098;SDS011;12223;42.650;23.364;2022-07-29T16:14:43;10.40;;;9.40;;
11098;SDS011;12223;42.650;23.364;2022-07-29T16:17:14;10.32;;;8.82;;
11098;SDS011;12223;42.650;23.364;2022-07-29T16:19:42;32.88;;;12.27;;
11098;SDS011;12223;42.650;23.364;2022-07-29T16:22:09;21.63;;;10.10;;
11098;SDS011;12223;42.650;23.364;2022-07-29T16:24:38;11.18;;;9.48;;
11098;SDS011;12223;42.650;23.364;2022-07-29T16:27:04;10.57;;;9.43;;
11098;SDS011;12223;42.650;23.364;2022-07-29T16:29:31;10.68;;;9.55;;
11098;SDS011;12223;42.650;23.364;2022-07-29T16:31:58;15.32;;;10.23;;
11098;SDS011;12223;42.650;23.364;2022-07-29T16:34:24;30.10;;;11.13;;